sensor_id;sensor_type;location;lat;lon;timestamp;pressure;altitude;pressure_sealevel;temperature;humidity
15477;BME280;7840;42.702;23.296;2023-02-20T00:00:52;95386.03;;;10.38;79.33
15477;BME280;7840;42.702;23.296;2023-02-20T00:03:21;95395.47;;;10.34;80.26
15477;BME280;7840;42.702;23.296;2023-02-20T00:06:03;95397.69;;;10.25;80.73
15477;BME280;7840;42.702;23.296;2023-02-20T00:10:39;95383.91;;;10.23;82.29
15477;BME280;7840;42.702;23.296;2023-02-20T00:13:07;95384.47;;;10.13;83.23
15477;BME280;7840;42.702;23.296;2023-02-20T00:15:34;95375.81;;;10.18;83.90
15477;BME280;7840;42.702;23.296;2023-02-20T00:18:02;95381.00;;;10.13;84.31
15477;BME280;7840;42.702;23.296;2023-02-20T00:20:30;95383.75;;;10.18;84.66
15477;BME280;7840;42.702;23.296;2023-02-20T00:22:58;95384.56;;;10.19;85.20
15477;BME280;7840;42.702;23.296;2023-02-20T00:25:26;95381.56;;;10.15;84.88
15477;BME280;7840;42.702;23.296;2023-02-20T00:27:59;95389.09;;;10.06;86.23
15477;BME280;7840;42.702;23.296;2023-02-20T00:30:30;95383.94;;;10.00;87.13
15477;BME280;7840;42.702;23.296;2023-02-20T00:32:58;95384.59;;;10.07;87.65
15477;BME280;7840;42.702;23.296;2023-02-20T00:35:27;95387.13;;;10.02;88.48
15477;BME280;7840;42.702;23.296;2023-02-20T00:37:55;95387.13;;;10.02;87.86
15477;BME280;7840;42.702;23.296;2023-02-20T00:40:27;95369.00;;;9.94;89.72
15477;BME280;7840;42.702;23.296;2023-02-20T00:42:55;95373.88;;;9.73;91.15
15477;BME280;7840;42.702;23.296;2023-02-20T00:45:29;95387.56;;;9.70;92.75
15477;BME280;7840;42.702;23.296;2023-02-20T00:47:56;95385.38;;;9.67;92.71
15477;BME280;7840;42.702;23.296;2023-02-20T00:50:24;95402.66;;;9.58;94.24
15477;BME280;7840;42.702;23.296;2023-02-20T00:52:53;95403.00;;;9.62;94.37
15477;BME280;7840;42.702;23.296;2023-02-20T00:55:27;95400.13;;;9.63;94.44
15477;BME280;7840;42.702;23.296;2023-02-20T00:57:54;95403.13;;;9.55;95.39
15477;BME280;7840;42.702;23.296;2023-02-20T01:00:27;95412.53;;;9.51;95.89
15477;BME280;7840;42.702;23.296;2023-02-20T01:02:56;95423.59;;;9.48;96.39
15477;BME280;7840;42.702;23.296;2023-02-20T01:05:24;95425.66;;;9.46;97.85
15477;BME280;7840;42.702;23.296;2023-02-20T01:07:51;95422.56;;;9.49;97.65
15477;BME280;7840;42.702;23.296;2023-02-20T01:10:20;95426.34;;;9.53;97.70
15477;BME280;7840;42.702;23.296;2023-02-20T01:13:01;95418.88;;;9.50;97.72
15477;BME280;7840;42.702;23.296;2023-02-20T01:15:31;95421.97;;;9.47;97.82
15477;BME280;7840;42.702;23.296;2023-02-20T01:18:07;95427.59;;;9.50;98.10
15477;BME280;7840;42.702;23.296;2023-02-20T01:20:53;95429.81;;;9.42;99.11
15477;BME280;7840;42.702;23.296;2023-02-20T01:23:22;95426.81;;;9.38;99.33
15477;BME280;7840;42.702;23.296;2023-02-20T01:25:55;95438.78;;;9.41;99.06
15477;BME280;7840;42.702;23.296;2023-02-20T01:28:32;95457.84;;;9.31;100.00
15477;BME280;7840;42.702;23.296;2023-02-20T01:31:02;95450.69;;;9.31;100.00
15477;BME280;7840;42.702;23.296;2023-02-20T01:33:29;95455.88;;;9.38;100.00
15477;BME280;7840;42.702;23.296;2023-02-20T01:35:57;95449.78;;;9.38;100.00
15477;BME280;7840;42.702;23.296;2023-02-20T01:38:25;95454.50;;;9.36;100.00
15477;BME280;7840;42.702;23.296;2023-02-20T01:40:54;95454.72;;;9.46;100.00
15477;BME280;7840;42.702;23.296;2023-02-20T01:43:45;95457.50;;;9.63;100.00
15477;BME280;7840;42.702;23.296;2023-02-20T01:46:49;95455.53;;;9.58;100.00
15477;BME280;7840;42.702;23.296;2023-02-20T01:49:38;95462.00;;;9.62;100.00
15477;BME280;7840;42.702;23.296;2023-02-20T01:52:09;95451.41;;;9.62;100.00
15477;BME280;7840;42.702;23.296;2023-02-20T01:55:02;95459.78;;;9.59;100.00
15477;BME280;7840;42.702;23.296;2023-02-20T01:57:32;95479.34;;;9.58;100.00
15477;BME280;7840;42.702;23.296;2023-02-20T02:00:34;95487.50;;;9.45;100.00
15477;BME280;7840;42.702;23.296;2023-02-20T02:03:08;95474.25;;;9.33;100.00
15477;BME280;7840;42.702;23.296;2023-02-20T02:05:59;95465.88;;;9.36;100.00
15477;BME280;7840;42.702;23.296;2023-02-20T02:08:35;95457.81;;;9.19;100.00
15477;BME280;7840;42.702;23.296;2023-02-20T02:11:06;95478.63;;;9.16;100.00
15477;BME280;7840;42.702;23.296;2023-02-20T02:13:49;95475.75;;;9.17;100.00
15477;BME280;7840;42.702;23.296;2023-02-20T02:16:26;95467.56;;;9.07;100.00
15477;BME280;7840;42.702;23.296;2023-02-20T02:19:03;95464.66;;;8.97;100.00
15477;BME280;7840;42.702;23.296;2023-02-20T02:22:32;95468.53;;;8.83;100.00
15477;BME280;7840;42.702;23.296;2023-02-20T02:25:18;95483.25;;;8.79;100.00
15477;BME280;7840;42.702;23.296;2023-02-20T02:34:42;95478.09;;;8.54;100.00
15477;BME280;7840;42.702;23.296;2023-02-20T02:37:19;95491.72;;;8.50;100.00
15477;BME280;7840;42.702;23.296;2023-02-20T02:40:00;95480.25;;;8.45;100.00
15477;BME280;7840;42.702;23.296;2023-02-20T02:42:38;95485.16;;;8.41;100.00
15477;BME280;7840;42.702;23.296;2023-02-20T02:45:14;95492.25;;;8.41;100.00
15477;BME280;7840;42.702;23.296;2023-02-20T02:47:50;95496.63;;;8.29;100.00
15477;BME280;7840;42.702;23.296;2023-02-20T02:50:26;95502.38;;;8.26;100.00
15477;BME280;7840;42.702;23.296;2023-02-20T02:52:58;95499.72;;;8.26;100.00
15477;BME280;7840;42.702;23.296;2023-02-20T02:55:28;95502.00;;;8.22;100.00
15477;BME280;7840;42.702;23.296;2023-02-20T02:58:01;95485.19;;;8.16;100.00
15477;BME280;7840;42.702;23.296;2023-02-20T03:00:34;95490.59;;;8.10;100.00
15477;BME280;7840;42.702;23.296;2023-02-20T03:03:07;95494.44;;;8.07;100.00
15477;BME280;7840;42.702;23.296;2023-02-20T03:05:39;95494.44;;;8.07;100.00
15477;BME280;7840;42.702;23.296;2023-02-20T03:08:20;95508.09;;;8.04;100.00
15477;BME280;7840;42.702;23.296;2023-02-20T03:11:00;95504.41;;;8.05;100.00
15477;BME280;7840;42.702;23.296;2023-02-20T03:13:37;95512.31;;;7.87;100.00
15477;BME280;7840;42.702;23.296;2023-02-20T03:16:34;95512.75;;;7.84;100.00
15477;BME280;7840;42.702;23.296;2023-02-20T03:19:12;95517.16;;;7.90;100.00
15477;BME280;7840;42.702;23.296;2023-02-20T03:21:43;95521.66;;;7.89;100.00
15477;BME280;7840;42.702;23.296;2023-02-20T03:24:16;95522.81;;;7.93;100.00
15477;BME280;7840;42.702;23.296;2023-02-20T03:26:47;95523.19;;;7.97;100.00
15477;BME280;7840;42.702;23.296;2023-02-20T03:29:19;95548.25;;;8.06;100.00
15477;BME280;7840;42.702;23.296;2023-02-20T03:31:53;95542.16;;;8.06;100.00
15477;BME280;7840;42.702;23.296;2023-02-20T03:34:41;95546.19;;;8.08;100.00
15477;BME280;7840;42.702;23.296;2023-02-20T03:37:28;95549.91;;;8.01;100.00
15477;BME280;7840;42.702;23.296;2023-02-20T03:40:17;95539.28;;;8.07;100.00
15477;BME280;7840;42.702;23.296;2023-02-20T03:43:09;95531.38;;;8.07;100.00
15477;BME280;7840;42.702;23.296;2023-02-20T03:45:56;95537.63;;;8.13;100.00
15477;BME280;7840;42.702;23.296;2023-02-20T03:48:33;95542.22;;;7.99;100.00
15477;BME280;7840;42.702;23.296;2023-02-20T03:51:04;95542.53;;;7.91;100.00
15477;BME280;7840;42.702;23.296;2023-02-20T03:53:33;95556.13;;;7.88;100.00
15477;BME280;7840;42.702;23.296;2023-02-20T03:56:08;95565.50;;;7.84;100.00
15477;BME280;7840;42.702;23.296;2023-02-20T03:58:46;95571.06;;;7.76;100.00
15477;BME280;7840;42.702;23.296;2023-02-20T04:01:17;95570.13;;;7.88;100.00
15477;BME280;7840;42.702;23.296;2023-02-20T04:03:48;95573.56;;;7.89;100.00
15477;BME280;7840;42.702;23.296;2023-02-20T04:06:17;95572.56;;;7.90;100.00
15477;BME280;7840;42.702;23.296;2023-02-20T04:08:51;95566.25;;;7.91;100.00
15477;BME280;7840;42.702;23.296;2023-02-20T04:11:29;95559.72;;;7.93;100.00
15477;BME280;7840;42.702;23.296;2023-02-20T04:13:58;95557.91;;;7.94;100.00
15477;BME280;7840;42.702;23.296;2023-02-20T04:16:31;95564.94;;;8.00;100.00
15477;BME280;7840;42.702;23.296;2023-02-20T04:19:05;95594.69;;;8.07;100.00
15477;BME280;7840;42.702;23.296;2023-02-20T04:21:37;95555.72;;;8.09;100.00
15477;BME280;7840;42.702;23.296;2023-02-20T04:24:08;95560.84;;;8.04;100.00
15477;BME280;7840;42.702;23.296;2023-02-20T04:26:42;95581.97;;;8.04;100.00
15477;BME280;7840;42.702;23.296;2023-02-20T04:29:26;95592.06;;;8.07;100.00
15477;BME280;7840;42.702;23.296;2023-02-20T04:31:54;95589.59;;;8.12;100.00
15477;BME280;7840;42.702;23.296;2023-02-20T04:34:37;95590.16;;;7.96;100.00
15477;BME280;7840;42.702;23.296;2023-02-20T04:37:07;95594.53;;;8.02;100.00
15477;BME280;7840;42.702;23.296;2023-02-20T04:39:35;95580.88;;;7.87;100.00
15477;BME280;7840;42.702;23.296;2023-02-20T04:42:05;95576.81;;;7.91;100.00
15477;BME280;7840;42.702;23.296;2023-02-20T04:44:34;95573.19;;;7.85;100.00
15477;BME280;7840;42.702;23.296;2023-02-20T04:47:06;95595.97;;;7.80;100.00
15477;BME280;7840;42.702;23.296;2023-02-20T04:49:34;95575.31;;;7.77;100.00
15477;BME280;7840;42.702;23.296;2023-02-20T04:52:19;95602.09;;;7.74;100.00
15477;BME280;7840;42.702;23.296;2023-02-20T04:54:50;95578.84;;;7.64;100.00
15477;BME280;7840;42.702;23.296;2023-02-20T04:57:51;95585.97;;;7.63;100.00
15477;BME280;7840;42.702;23.296;2023-02-20T05:00:29;95579.22;;;7.67;100.00
15477;BME280;7840;42.702;23.296;2023-02-20T05:02:57;95590.38;;;7.70;100.00
15477;BME280;7840;42.702;23.296;2023-02-20T05:05:26;95604.19;;;7.65;100.00
15477;BME280;7840;42.702;23.296;2023-02-20T05:08:03;95627.75;;;7.60;98.68
15477;BME280;7840;42.702;23.296;2023-02-20T05:10:33;95636.28;;;7.62;96.67
15477;BME280;7840;42.702;23.296;2023-02-20T05:13:09;95612.75;;;7.60;95.65
15477;BME280;7840;42.702;23.296;2023-02-20T05:15:37;95632.47;;;7.51;94.32
15477;BME280;7840;42.702;23.296;2023-02-20T05:18:25;95622.53;;;7.53;94.07
15477;BME280;7840;42.702;23.296;2023-02-20T05:20:53;95623.16;;;7.55;92.47
15477;BME280;7840;42.702;23.296;2023-02-20T05:23:38;95624.13;;;7.54;92.00
15477;BME280;7840;42.702;23.296;2023-02-20T05:26:09;95623.38;;;7.47;91.83
15477;BME280;7840;42.702;23.296;2023-02-20T05:28:57;95620.59;;;7.42;92.08
15477;BME280;7840;42.702;23.296;2023-02-20T05:31:25;95636.00;;;7.38;92.63
15477;BME280;7840;42.702;23.296;2023-02-20T05:33:53;95639.72;;;7.31;94.07
15477;BME280;7840;42.702;23.296;2023-02-20T05:36:22;95672.94;;;7.32;94.76
15477;BME280;7840;42.702;23.296;2023-02-20T05:38:50;95658.16;;;7.31;95.47
15477;BME280;7840;42.702;23.296;2023-02-20T05:41:52;95658.34;;;7.36;96.70
15477;BME280;7840;42.702;23.296;2023-02-20T05:44:34;95670.50;;;7.37;97.70
15477;BME280;7840;42.702;23.296;2023-02-20T05:47:25;95657.06;;;7.45;97.77
15477;BME280;7840;42.702;23.296;2023-02-20T05:50:05;95668.03;;;7.42;98.87
15477;BME280;7840;42.702;23.296;2023-02-20T05:52:47;95656.66;;;7.48;99.87
15477;BME280;7840;42.702;23.296;2023-02-20T05:55:17;95664.38;;;7.43;100.00
15477;BME280;7840;42.702;23.296;2023-02-20T05:57:48;95664.19;;;7.38;100.00
15477;BME280;7840;42.702;23.296;2023-02-20T06:00:32;95664.75;;;7.47;100.00
15477;BME280;7840;42.702;23.296;2023-02-20T06:03:00;95660.63;;;7.57;100.00
15477;BME280;7840;42.702;23.296;2023-02-20T06:05:27;95661.44;;;7.58;99.63
15477;BME280;7840;42.702;23.296;2023-02-20T06:08:13;95678.03;;;7.65;96.92
15477;BME280;7840;42.702;23.296;2023-02-20T06:11:22;95679.94;;;7.83;91.74
15477;BME280;7840;42.702;23.296;2023-02-20T06:13:51;95688.94;;;8.00;86.74
15477;BME280;7840;42.702;23.296;2023-02-20T06:16:24;95684.63;;;8.06;84.69
15477;BME280;7840;42.702;23.296;2023-02-20T06:18:53;95681.34;;;8.10;83.28
15477;BME280;7840;42.702;23.296;2023-02-20T06:21:34;95679.72;;;8.09;83.24
15477;BME280;7840;42.702;23.296;2023-02-20T06:24:03;95684.56;;;8.12;82.82
15477;BME280;7840;42.702;23.296;2023-02-20T06:26:38;95669.66;;;8.25;82.78
15477;BME280;7840;42.702;23.296;2023-02-20T06:29:21;95675.03;;;8.36;82.40
15477;BME280;7840;42.702;23.296;2023-02-20T06:31:49;95706.53;;;8.38;81.14
15477;BME280;7840;42.702;23.296;2023-02-20T06:34:17;95715.59;;;8.42;80.13
15477;BME280;7840;42.702;23.296;2023-02-20T06:36:48;95703.81;;;8.44;81.36
15477;BME280;7840;42.702;23.296;2023-02-20T06:39:45;95688.34;;;8.48;81.08
15477;BME280;7840;42.702;23.296;2023-02-20T06:42:28;95697.75;;;8.62;78.74
15477;BME280;7840;42.702;23.296;2023-02-20T06:44:57;95698.91;;;8.48;79.91
15477;BME280;7840;42.702;23.296;2023-02-20T06:47:29;95697.81;;;8.56;79.28
15477;BME280;7840;42.702;23.296;2023-02-20T06:49:57;95709.78;;;8.58;78.48
15477;BME280;7840;42.702;23.296;2023-02-20T06:52:26;95700.50;;;8.49;78.27
15477;BME280;7840;42.702;23.296;2023-02-20T06:54:57;95709.75;;;8.40;77.60
15477;BME280;7840;42.702;23.296;2023-02-20T06:57:25;95726.91;;;8.24;78.42
15477;BME280;7840;42.702;23.296;2023-02-20T06:59:58;95709.59;;;8.28;78.04
15477;BME280;7840;42.702;23.296;2023-02-20T07:02:27;95695.44;;;8.22;78.82
15477;BME280;7840;42.702;23.296;2023-02-20T07:04:58;95722.28;;;8.19;78.96
15477;BME280;7840;42.702;23.296;2023-02-20T07:07:26;95714.06;;;8.28;76.90
15477;BME280;7840;42.702;23.296;2023-02-20T07:09:53;95722.94;;;8.40;76.70
15477;BME280;7840;42.702;23.296;2023-02-20T07:12:21;95712.69;;;8.50;75.54
15477;BME280;7840;42.702;23.296;2023-02-20T07:14:53;95708.88;;;8.64;74.62
15477;BME280;7840;42.702;23.296;2023-02-20T07:17:26;95729.00;;;8.65;73.93
15477;BME280;7840;42.702;23.296;2023-02-20T07:19:56;95736.44;;;8.75;72.09
15477;BME280;7840;42.702;23.296;2023-02-20T07:22:24;95702.91;;;8.75;70.42
15477;BME280;7840;42.702;23.296;2023-02-20T07:24:55;95716.69;;;8.59;71.09
15477;BME280;7840;42.702;23.296;2023-02-20T07:27:25;95749.66;;;8.50;71.11
15477;BME280;7840;42.702;23.296;2023-02-20T07:29:53;95710.66;;;8.52;71.32
15477;BME280;7840;42.702;23.296;2023-02-20T07:32:21;95706.41;;;8.69;69.50
15477;BME280;7840;42.702;23.296;2023-02-20T07:34:50;95706.53;;;8.56;69.44
15477;BME280;7840;42.702;23.296;2023-02-20T07:37:28;95707.84;;;8.47;69.64
15477;BME280;7840;42.702;23.296;2023-02-20T07:39:55;95722.16;;;8.33;69.60
15477;BME280;7840;42.702;23.296;2023-02-20T07:42:35;95701.25;;;8.38;69.43
15477;BME280;7840;42.702;23.296;2023-02-20T07:45:03;95723.31;;;8.43;68.94
15477;BME280;7840;42.702;23.296;2023-02-20T07:47:46;95718.19;;;8.23;68.35
15477;BME280;7840;42.702;23.296;2023-02-20T07:50:31;95724.22;;;8.31;68.43
15477;BME280;7840;42.702;23.296;2023-02-20T07:52:59;95735.19;;;8.28;67.93
15477;BME280;7840;42.702;23.296;2023-02-20T07:55:27;95743.28;;;8.33;68.28
15477;BME280;7840;42.702;23.296;2023-02-20T07:57:57;95712.56;;;8.45;67.73
15477;BME280;7840;42.702;23.296;2023-02-20T08:00:26;95748.19;;;8.54;66.58
15477;BME280;7840;42.702;23.296;2023-02-20T08:03:01;95740.19;;;8.86;65.58
15477;BME280;7840;42.702;23.296;2023-02-20T08:05:57;95761.72;;;8.64;65.45
15477;BME280;7840;42.702;23.296;2023-02-20T08:08:31;95741.78;;;8.68;64.73
15477;BME280;7840;42.702;23.296;2023-02-20T08:11:09;95737.53;;;8.67;64.24
15477;BME280;7840;42.702;23.296;2023-02-20T08:13:36;95743.31;;;8.76;63.98
15477;BME280;7840;42.702;23.296;2023-02-20T08:16:08;95747.50;;;8.84;63.04
15477;BME280;7840;42.702;23.296;2023-02-20T08:18:53;95755.38;;;8.90;62.95
15477;BME280;7840;42.702;23.296;2023-02-20T08:21:41;95754.44;;;9.03;61.99
15477;BME280;7840;42.702;23.296;2023-02-20T08:24:18;95762.38;;;9.21;61.36
15477;BME280;7840;42.702;23.296;2023-02-20T08:26:51;95741.94;;;9.28;60.99
15477;BME280;7840;42.702;23.296;2023-02-20T08:29:20;95765.16;;;9.08;60.53
15477;BME280;7840;42.702;23.296;2023-02-20T08:31:48;95753.41;;;9.22;60.31
15477;BME280;7840;42.702;23.296;2023-02-20T08:34:16;95749.44;;;9.13;60.10
15477;BME280;7840;42.702;23.296;2023-02-20T08:37:04;95758.13;;;9.20;60.07
15477;BME280;7840;42.702;23.296;2023-02-20T08:39:53;95761.50;;;9.27;60.18
15477;BME280;7840;42.702;23.296;2023-02-20T08:42:20;95793.50;;;9.38;59.97
15477;BME280;7840;42.702;23.296;2023-02-20T08:47:44;95743.09;;;9.51;59.33
15477;BME280;7840;42.702;23.296;2023-02-20T08:50:16;95721.84;;;9.57;58.78
15477;BME280;7840;42.702;23.296;2023-02-20T08:52:48;95737.31;;;9.72;57.89
15477;BME280;7840;42.702;23.296;2023-02-20T08:55:16;95731.22;;;9.72;57.72
15477;BME280;7840;42.702;23.296;2023-02-20T08:57:54;95712.03;;;9.46;57.63
15477;BME280;7840;42.702;23.296;2023-02-20T09:00:22;95737.94;;;9.56;58.25
15477;BME280;7840;42.702;23.296;2023-02-20T09:02:53;95727.25;;;9.93;57.18
15477;BME280;7840;42.702;23.296;2023-02-20T09:05:21;95720.16;;;10.05;56.73
15477;BME280;7840;42.702;23.296;2023-02-20T09:07:51;95742.38;;;10.04;54.75
15477;BME280;7840;42.702;23.296;2023-02-20T09:10:19;95763.75;;;9.91;55.10
15477;BME280;7840;42.702;23.296;2023-02-20T09:12:47;95731.97;;;9.91;54.57
15477;BME280;7840;42.702;23.296;2023-02-20T09:15:18;95708.16;;;9.91;54.01
15477;BME280;7840;42.702;23.296;2023-02-20T09:17:51;95732.25;;;10.12;53.91
15477;BME280;7840;42.702;23.296;2023-02-20T09:20:21;95768.72;;;9.99;53.96
15477;BME280;7840;42.702;23.296;2023-02-20T09:22:50;95728.53;;;10.02;54.25
15477;BME280;7840;42.702;23.296;2023-02-20T09:25:18;95752.88;;;10.22;54.16
15477;BME280;7840;42.702;23.296;2023-02-20T09:28:00;95726.38;;;9.99;55.09
15477;BME280;7840;42.702;23.296;2023-02-20T09:30:29;95738.19;;;10.26;54.53
15477;BME280;7840;42.702;23.296;2023-02-20T09:32:59;95751.94;;;10.47;54.59
15477;BME280;7840;42.702;23.296;2023-02-20T09:35:29;95768.84;;;10.15;54.53
15477;BME280;7840;42.702;23.296;2023-02-20T09:38:01;95714.41;;;10.08;55.75
15477;BME280;7840;42.702;23.296;2023-02-20T09:40:30;95742.75;;;10.19;56.53
15477;BME280;7840;42.702;23.296;2023-02-20T09:43:13;95757.91;;;10.77;55.26
15477;BME280;7840;42.702;23.296;2023-02-20T09:45:52;95727.38;;;10.39;55.71
15477;BME280;7840;42.702;23.296;2023-02-20T09:48:33;95726.72;;;10.44;55.23
15477;BME280;7840;42.702;23.296;2023-02-20T09:51:10;95736.97;;;10.64;54.68
15477;BME280;7840;42.702;23.296;2023-02-20T09:56:39;95730.38;;;10.31;53.76
15477;BME280;7840;42.702;23.296;2023-02-20T09:59:12;95738.25;;;10.73;52.76
15477;BME280;7840;42.702;23.296;2023-02-20T10:01:48;95732.69;;;10.63;52.59
15477;BME280;7840;42.702;23.296;2023-02-20T10:04:20;95748.72;;;10.91;51.82
15477;BME280;7840;42.702;23.296;2023-02-20T10:06:50;95732.81;;;10.68;51.17
15477;BME280;7840;42.702;23.296;2023-02-20T10:09:20;95757.34;;;10.52;50.92
15477;BME280;7840;42.702;23.296;2023-02-20T10:11:59;95725.91;;;10.67;49.98
15477;BME280;7840;42.702;23.296;2023-02-20T10:14:57;95771.06;;;10.95;49.63
15477;BME280;7840;42.702;23.296;2023-02-20T10:17:42;95742.25;;;10.87;49.54
15477;BME280;7840;42.702;23.296;2023-02-20T10:20:19;95722.53;;;10.83;48.51
15477;BME280;7840;42.702;23.296;2023-02-20T10:22:57;95728.72;;;11.24;47.31
15477;BME280;7840;42.702;23.296;2023-02-20T10:25:29;95707.75;;;11.11;47.73
15477;BME280;7840;42.702;23.296;2023-02-20T10:28:03;95706.41;;;11.77;46.47
15477;BME280;7840;42.702;23.296;2023-02-20T10:30:35;95749.84;;;11.19;46.89
15477;BME280;7840;42.702;23.296;2023-02-20T10:33:19;95695.28;;;11.23;46.81
15477;BME280;7840;42.702;23.296;2023-02-20T10:35:54;95694.72;;;11.21;47.54
15477;BME280;7840;42.702;23.296;2023-02-20T10:38:26;95696.16;;;11.69;46.13
15477;BME280;7840;42.702;23.296;2023-02-20T10:41:04;95686.34;;;11.81;45.73
15477;BME280;7840;42.702;23.296;2023-02-20T10:43:39;95668.59;;;11.70;46.86
15477;BME280;7840;42.702;23.296;2023-02-20T10:46:11;95671.78;;;11.72;46.90
15477;BME280;7840;42.702;23.296;2023-02-20T10:48:43;95663.09;;;12.05;45.97
15477;BME280;7840;42.702;23.296;2023-02-20T10:51:14;95680.81;;;11.71;46.13
15477;BME280;7840;42.702;23.296;2023-02-20T10:53:47;95696.81;;;11.88;45.76
15477;BME280;7840;42.702;23.296;2023-02-20T10:56:23;95680.53;;;11.84;45.56
15477;BME280;7840;42.702;23.296;2023-02-20T10:58:58;95677.19;;;11.77;45.84
15477;BME280;7840;42.702;23.296;2023-02-20T11:01:32;95673.16;;;12.20;45.22
15477;BME280;7840;42.702;23.296;2023-02-20T11:04:05;95693.13;;;12.05;44.58
15477;BME280;7840;42.702;23.296;2023-02-20T11:06:39;95689.59;;;12.17;45.24
15477;BME280;7840;42.702;23.296;2023-02-20T11:09:07;95676.22;;;12.45;44.86
15477;BME280;7840;42.702;23.296;2023-02-20T11:11:39;95702.63;;;12.01;45.89
15477;BME280;7840;42.702;23.296;2023-02-20T11:14:13;95684.25;;;11.83;46.37
15477;BME280;7840;42.702;23.296;2023-02-20T11:16:50;95706.47;;;12.11;46.37
15477;BME280;7840;42.702;23.296;2023-02-20T11:19:39;95698.34;;;11.72;46.47
15477;BME280;7840;42.702;23.296;2023-02-20T11:22:10;95695.66;;;11.84;46.19
15477;BME280;7840;42.702;23.296;2023-02-20T11:24:44;95706.44;;;11.94;46.19
15477;BME280;7840;42.702;23.296;2023-02-20T11:27:19;95696.25;;;12.02;45.80
15477;BME280;7840;42.702;23.296;2023-02-20T11:30:20;95686.13;;;12.33;45.80
15477;BME280;7840;42.702;23.296;2023-02-20T11:32:49;95688.44;;;12.63;44.85
15477;BME280;7840;42.702;23.296;2023-02-20T11:35:30;95675.53;;;12.72;44.28
15477;BME280;7840;42.702;23.296;2023-02-20T11:38:33;95672.97;;;12.77;43.84
15477;BME280;7840;42.702;23.296;2023-02-20T11:41:08;95668.81;;;12.47;44.85
15477;BME280;7840;42.702;23.296;2023-02-20T11:44:07;95665.09;;;12.48;44.76
15477;BME280;7840;42.702;23.296;2023-02-20T11:47:22;95655.69;;;12.41;45.16
15477;BME280;7840;42.702;23.296;2023-02-20T11:50:10;95673.88;;;12.32;45.20
15477;BME280;7840;42.702;23.296;2023-02-20T11:52:44;95661.13;;;12.68;44.52
15477;BME280;7840;42.702;23.296;2023-02-20T11:55:23;95653.19;;;12.51;44.60
15477;BME280;7840;42.702;23.296;2023-02-20T11:57:51;95662.34;;;12.77;44.24
15477;BME280;7840;42.702;23.296;2023-02-20T12:00:21;95645.31;;;12.78;43.55
15477;BME280;7840;42.702;23.296;2023-02-20T12:02:53;95668.97;;;12.57;43.60
15477;BME280;7840;42.702;23.296;2023-02-20T12:05:21;95668.56;;;12.49;44.07
15477;BME280;7840;42.702;23.296;2023-02-20T12:08:02;95647.25;;;12.44;44.10
15477;BME280;7840;42.702;23.296;2023-02-20T12:10:41;95646.16;;;12.62;44.12
15477;BME280;7840;42.702;23.296;2023-02-20T12:13:13;95701.78;;;12.85;43.38
15477;BME280;7840;42.702;23.296;2023-02-20T12:15:41;95643.31;;;12.68;43.61
15477;BME280;7840;42.702;23.296;2023-02-20T12:18:34;95641.88;;;12.77;43.10
15477;BME280;7840;42.702;23.296;2023-02-20T12:21:14;95648.44;;;13.13;42.72
15477;BME280;7840;42.702;23.296;2023-02-20T12:23:54;95648.34;;;12.65;43.70
15477;BME280;7840;42.702;23.296;2023-02-20T12:26:53;95645.25;;;12.73;43.37
15477;BME280;7840;42.702;23.296;2023-02-20T12:29:37;95669.94;;;12.51;43.65
15477;BME280;7840;42.702;23.296;2023-02-20T12:32:33;95671.59;;;12.96;43.45
15477;BME280;7840;42.702;23.296;2023-02-20T12:35:27;95657.47;;;12.91;43.44
15477;BME280;7840;42.702;23.296;2023-02-20T12:38:06;95652.88;;;12.86;43.02
15477;BME280;7840;42.702;23.296;2023-02-20T12:40:55;95646.69;;;13.02;42.40
15477;BME280;7840;42.702;23.296;2023-02-20T12:43:37;95651.75;;;12.82;42.83
15477;BME280;7840;42.702;23.296;2023-02-20T12:46:27;95654.41;;;13.21;43.12
15477;BME280;7840;42.702;23.296;2023-02-20T12:49:14;95644.47;;;12.94;42.71
15477;BME280;7840;42.702;23.296;2023-02-20T12:52:05;95633.13;;;12.82;43.56
15477;BME280;7840;42.702;23.296;2023-02-20T12:54:46;95649.72;;;12.89;43.08
15477;BME280;7840;42.702;23.296;2023-02-20T12:57:29;95639.31;;;12.66;43.23
15477;BME280;7840;42.702;23.296;2023-02-20T13:36:59;95665.13;;;11.69;46.85
15477;BME280;7840;42.702;23.296;2023-02-20T13:39:36;95662.31;;;11.76;46.98
15477;BME280;7840;42.702;23.296;2023-02-20T13:44:57;95661.00;;;12.41;46.25
15477;BME280;7840;42.702;23.296;2023-02-20T13:47:36;95669.50;;;12.59;45.29
15477;BME280;7840;42.702;23.296;2023-02-20T13:50:29;95672.56;;;13.07;44.40
15477;BME280;7840;42.702;23.296;2023-02-20T13:53:06;95690.28;;;13.01;44.21
15477;BME280;7840;42.702;23.296;2023-02-20T13:58:32;95681.59;;;13.50;43.03
15477;BME280;7840;42.702;23.296;2023-02-20T14:01:02;95685.25;;;13.44;43.32
15477;BME280;7840;42.702;23.296;2023-02-20T14:03:31;95683.38;;;13.44;43.32
15477;BME280;7840;42.702;23.296;2023-02-20T14:06:06;95687.63;;;13.40;43.38
15477;BME280;7840;42.702;23.296;2023-02-20T14:08:37;95669.69;;;13.57;43.15
15477;BME280;7840;42.702;23.296;2023-02-20T14:11:09;95664.94;;;13.86;42.61
15477;BME280;7840;42.702;23.296;2023-02-20T14:13:39;95649.56;;;13.93;42.65
15477;BME280;7840;42.702;23.296;2023-02-20T14:16:29;95660.22;;;12.79;44.79
15477;BME280;7840;42.702;23.296;2023-02-20T14:18:59;95656.81;;;12.45;45.84
15477;BME280;7840;42.702;23.296;2023-02-20T14:21:29;95684.75;;;12.64;45.69
15477;BME280;7840;42.702;23.296;2023-02-20T14:24:15;95657.91;;;13.04;44.66
15477;BME280;7840;42.702;23.296;2023-02-20T14:26:44;95670.09;;;13.71;43.68
15477;BME280;7840;42.702;23.296;2023-02-20T14:29:20;95680.75;;;14.30;42.78
15477;BME280;7840;42.702;23.296;2023-02-20T14:32:04;95652.13;;;13.56;43.88
15477;BME280;7840;42.702;23.296;2023-02-20T14:37:09;95680.09;;;13.15;45.24
15477;BME280;7840;42.702;23.296;2023-02-20T14:39:48;95673.34;;;12.30;46.88
15477;BME280;7840;42.702;23.296;2023-02-20T14:42:30;95688.66;;;11.66;49.05
15477;BME280;7840;42.702;23.296;2023-02-20T14:45:18;95684.47;;;11.53;49.88
15477;BME280;7840;42.702;23.296;2023-02-20T14:47:51;95697.88;;;11.46;50.14
15477;BME280;7840;42.702;23.296;2023-02-20T14:50:33;95689.09;;;12.20;48.20